Latest Weather Observations for Grafton AgRS

IDN60801

Issued at 6:02 pm EDT Tuesday 9 February 2016 (issued every 30 minutes, with the page automatically refreshed every 10 minutes)

About weather observations | Map of weather stations | Latest weather observations for NSW | Other Formats
Station Details ID: 058077 Name: GRAFTON RESEARCH STN Lat: -29.62 Lon: 152.96 Height: 25.0 m
Data from the previous 72 hours. | See also: Recent months for locations in New South Wales
Date/Time
EDT
Temp
°C
App
Temp
°C
Dew
Point
Rel
Hum
%
Delta-T
°C
Wind Press
QNH
hPa
Press
MSL
hPa
Rain
since 9 am
mm
Dir
 
Spd
km/h
Gust
km/h
Spd
kts
Gust
kts
09/06:00pm 25.9 23.3 17.8 61 5.1 SE 28 37 15 20 - - 0.0
09/05:30pm 26.2 23.7 18.1 61 5.1 SE 28 39 15 21 - - 0.0
09/05:00pm 27.1 23.7 17.6 56 6.0 SE 32 43 17 23 - - 0.0
09/04:30pm 27.6 24.5 16.6 51 6.8 SE 28 39 15 21 - - 0.0
09/04:22pm 28.2 26.0 18.6 56 6.2 SE 28 46 15 25 - - 0.0
09/04:00pm 28.6 26.1 17.2 50 7.2 ESE 26 41 14 22 - - 0.0
09/03:30pm 28.3 25.1 17.2 51 7.0 SE 30 41 16 22 - - 0.0
09/03:00pm 28.7 25.6 17.6 51 7.0 SE 30 39 16 21 - - 0.0
09/02:30pm 29.4 26.7 17.6 49 7.5 SE 28 43 15 23 - - 0.0
09/02:00pm 28.0 24.5 16.6 50 7.1 SE 30 39 16 21 - - 0.0
09/01:30pm 29.4 26.5 17.9 50 7.3 SE 30 41 16 22 - - 0.0
09/01:00pm 26.8 24.1 16.7 54 6.3 SSE 26 35 14 19 - - 0.0
09/12:30pm 28.9 26.6 18.4 53 6.7 SSE 28 39 15 21 - - 0.0
09/12:00pm 28.0 24.3 17.5 52 6.6 SE 33 43 18 23 - - 0.0
09/11:30am 28.1 26.5 19.1 58 5.8 SE 26 35 14 19 - - 0.0
09/11:00am 27.0 25.2 18.8 60 5.3 SE 26 35 14 19 - - 0.0
09/10:30am 25.9 23.3 17.8 61 5.1 SSE 28 35 15 19 - - 0.0
09/10:00am 26.4 24.7 19.0 63 4.7 SSE 26 35 14 19 - - 0.0
09/09:30am 25.0 24.2 18.4 66 4.2 SSE 20 30 11 16 - - 0.0
09/09:00am 24.5 24.9 19.1 72 3.4 SSW 15 22 8 12 - - 0.0
09/08:30am 23.2 24.7 18.9 77 2.7 SSW 9 11 5 6 - - 0.0
09/08:00am 21.5 22.6 18.1 81 2.1 WSW 9 11 5 6 - - 0.0
09/07:30am 19.9 21.4 17.5 86 1.5 WSW 6 9 3 5 - - 0.0
09/07:00am 18.5 19.7 16.8 90 1.0 WSW 6 9 3 5 - - 0.0
09/06:30am 18.2 18.7 16.5 90 1.0 W 9 11 5 6 - - 0.0
09/06:00am 18.1 18.5 16.3 89 1.1 WSW 9 13 5 7 - - 0.0
09/05:30am 18.6 19.7 16.6 88 1.2 W 6 9 3 5 - - 0.0
09/05:00am 19.1 20.1 16.9 87 1.3 WSW 7 11 4 6 - - 0.0
09/04:30am 19.2 19.1 17.0 87 1.3 WSW 13 15 7 8 - - 0.0
09/04:00am 19.7 20.9 17.3 86 1.5 SW 7 9 4 5 - - 0.0
09/03:30am 19.9 20.6 17.1 84 1.7 WSW 9 13 5 7 - - 0.0
09/03:00am 19.9 21.0 17.1 84 1.7 WSW 7 9 4 5 - - 0.0
09/02:30am 19.8 20.9 17.0 84 1.7 W 7 9 4 5 - - 0.0
09/02:00am 20.3 21.3 17.7 85 1.6 WSW 9 11 5 6 - - 0.0
09/01:30am 21.1 22.7 18.3 84 1.7 SSW 7 13 4 7 - - 0.0
09/01:00am 21.4 22.9 18.8 85 1.6 SSW 9 11 5 6 - - 0.0
09/12:30am 21.8 23.3 18.8 83 1.9 SSW 9 13 5 7 - - 0.0
09/12:00am 21.6 23.3 18.6 83 1.9 SW 7 9 4 5 - - 0.0
 
Date/Time
EDT
Temp
°C
App
Temp
°C
Dew
Point
Rel
Hum
%
Delta-T
°C
Wind Press
QNH
hPa
Press
MSL
hPa
Rain
since 9 am
mm
Dir
 
Spd
km/h
Gust
km/h
Spd
kts
Gust
kts
08/11:30pm 21.6 22.9 18.4 82 2.0 SW 9 11 5 6 - - 0.0
08/11:00pm 21.6 23.2 18.2 81 2.1 SW 7 9 4 5 - - 0.0
08/10:30pm 21.9 23.1 18.3 80 2.3 SSW 9 13 5 7 - - 0.0
08/10:00pm 21.9 23.2 18.5 81 2.1 SSE 9 17 5 9 - - 0.0
08/09:30pm 21.8 22.1 18.0 79 2.4 SE 13 17 7 9 - - 0.0
08/09:00pm 22.5 22.1 18.1 76 2.7 SE 17 22 9 12 - - 0.0
08/08:30pm 23.0 22.1 18.3 75 3.0 SE 20 28 11 15 - - 0.0
08/08:00pm 22.9 22.5 18.0 74 3.1 SE 17 24 9 13 - - 0.0
08/07:30pm 23.7 22.5 18.4 72 3.3 SE 22 30 12 16 - - 0.0
08/07:00pm 24.9 23.8 18.6 68 4.0 SE 22 32 12 17 - - 0.0
08/06:30pm 25.3 22.6 18.5 66 4.3 SE 30 39 16 21 - - 0.0
08/06:00pm 26.4 24.6 18.8 63 4.9 SE 26 37 14 20 - - 0.0
08/05:30pm 26.5 24.3 18.6 62 5.0 SE 28 39 15 21 - - 0.0
08/05:00pm 27.6 25.5 18.9 59 5.6 SE 28 39 15 21 - - 0.0
08/04:30pm 27.6 25.6 19.1 59 5.5 SE 28 41 15 22 - - 0.0
08/04:00pm 28.1 26.5 19.1 58 5.8 SE 26 33 14 18 - - 0.0
08/03:30pm 27.4 23.7 18.4 58 5.7 SE 35 50 19 27 - - 0.0
08/03:00pm 28.4 26.5 18.5 55 6.3 SE 26 35 14 19 - - 0.0
08/02:30pm 29.4 27.9 17.6 49 7.5 SE 22 35 12 19 - - 0.0
08/02:00pm 29.7 27.5 16.8 45 8.1 SE 24 35 13 19 - - 0.0
08/01:30pm 29.9 28.5 17.0 45 8.1 SE 20 30 11 16 - - 0.0
08/01:00pm 28.2 26.6 16.5 49 7.3 SE 20 28 11 15 - - 0.0
08/12:30pm 28.6 27.7 18.1 53 6.7 SSE 20 28 11 15 - - 0.0
08/12:00pm 28.5 27.7 18.0 53 6.7 SSE 19 26 10 14 - - 0.0
08/11:30am 28.4 26.9 17.6 52 6.8 SE 22 28 12 15 - - 0.0
08/11:00am 27.8 27.0 17.9 54 6.3 SE 19 26 10 14 - - 0.0
08/10:30am 26.0 25.1 16.8 57 5.7 SSE 17 24 9 13 - - 0.0
08/10:00am 26.5 26.4 17.8 58 5.5 S 15 20 8 11 - - 0.0
08/09:30am 24.8 25.5 17.0 62 4.8 SW 9 15 5 8 - - 0.0
08/09:00am 23.1 23.4 16.9 68 3.8 SW 11 17 6 9 - - 0.0
08/08:30am 22.0 22.2 16.7 72 3.2 SW 11 15 6 8 - - 0.0
08/08:00am 20.7 20.8 16.5 77 2.5 WSW 11 15 6 8 - - 0.0
08/07:30am 19.3 19.3 16.3 83 1.8 W 11 15 6 8 - - 0.0
08/07:00am 18.0 17.9 16.0 88 1.2 W 11 15 6 8 - - 0.0
08/06:30am 17.2 17.0 15.7 91 0.9 W 11 15 6 8 - - 0.0
08/06:00am 17.0 18.9 15.7 92 0.8 CALM 0 0 0 0 - - 0.0
08/05:30am 17.4 18.0 15.7 90 1.0 W 7 9 4 5 - - 0.0
08/05:00am 17.7 18.3 15.9 89 1.1 W 7 9 4 5 - - 0.0
08/04:30am 17.9 18.2 16.1 89 1.1 W 9 13 5 7 - - 0.0
08/04:00am 18.2 18.1 16.0 87 1.3 W 11 13 6 7 - - 0.0
08/03:30am 18.6 18.8 15.8 84 1.7 W 9 13 5 7 - - 0.0
08/03:00am 18.8 18.6 15.7 82 1.8 WSW 11 15 6 8 - - 0.0
08/02:30am 18.8 19.0 15.7 82 1.8 WSW 9 11 5 6 - - 0.0
08/02:00am 19.3 19.3 16.2 82 1.9 WSW 11 13 6 7 - - 0.0
08/01:30am 19.1 19.6 16.5 85 1.6 WSW 9 11 5 6 - - 0.0
08/01:00am 19.7 20.6 16.7 83 1.8 WSW 7 9 4 5 - - 0.0
08/12:30am 20.5 21.6 17.1 81 2.1 SW 7 9 4 5 - - 0.0
08/12:00am 20.6 21.7 17.2 81 2.1 WSW 7 9 4 5 - - 0.0
 
Date/Time
EDT
Temp
°C
App
Temp
°C
Dew
Point
Rel
Hum
%
Delta-T
°C
Wind Press
QNH
hPa
Press
MSL
hPa
Rain
since 9 am
mm
Dir
 
Spd
km/h
Gust
km/h
Spd
kts
Gust
kts
07/11:30pm 20.4 21.7 17.2 82 2.0 W 6 9 3 5 - - 0.0
07/11:00pm 20.4 21.4 16.8 80 2.2 SSW 7 9 4 5 - - 0.0
07/10:30pm 20.9 22.0 17.1 79 2.3 S 7 7 4 4 - - 0.0
07/10:00pm 21.0 23.3 16.8 77 2.6 CALM 0 0 0 0 - - 0.0
07/09:30pm 21.1 23.5 16.9 77 2.6 CALM 0 0 0 0 - - 0.0
07/09:00pm 21.4 22.4 16.8 75 2.8 SSE 7 9 4 5 - - 0.0
07/08:30pm 22.1 22.7 16.8 72 3.2 SE 9 15 5 8 - - 0.0
07/08:00pm 22.9 22.5 17.1 70 3.6 SE 15 20 8 11 - - 0.0
07/07:30pm 23.6 23.0 17.6 69 3.7 ESE 17 24 9 13 - - 0.0
07/07:00pm 24.0 22.7 17.3 66 4.2 SE 20 30 11 16 - - 0.0
07/06:30pm 24.8 22.4 16.5 60 5.1 SE 24 32 13 17 - - 0.0
07/06:00pm 25.7 22.9 17.4 60 5.2 ESE 28 35 15 19 - - 0.0
07/05:30pm 26.7 25.0 17.2 56 5.9 SE 22 33 12 18 - - 0.0
07/05:00pm 26.7 23.7 17.8 58 5.6 SE 30 41 16 22 - - 0.0
07/04:30pm 27.7 25.6 18.1 56 6.1 SE 26 37 14 20 - - 0.0
07/04:00pm 27.6 25.0 17.7 54 6.3 SE 28 39 15 21 - - 0.0
07/03:30pm 27.1 24.4 16.7 53 6.5 ESE 26 39 14 21 - - 0.0
07/03:00pm 27.7 25.7 17.3 53 6.5 ESE 24 37 13 20 - - 0.0
07/02:30pm 27.6 24.9 15.6 48 7.3 SSE 24 35 13 19 - - 0.0
07/02:00pm 27.0 24.8 16.0 51 6.8 SE 22 32 12 17 - - 0.0
07/01:30pm 27.4 25.0 15.4 48 7.3 SE 22 32 12 17 - - 0.0
07/01:00pm 28.6 27.7 18.1 53 6.7 SSE 20 30 11 16 - - 0.0
07/12:30pm 27.8 26.6 17.0 51 6.8 SE 19 28 10 15 - - 0.0
07/12:00pm 25.5 23.4 16.1 56 5.8 SSE 22 28 12 15 - - 0.0
07/11:30am 26.6 25.0 17.4 57 5.8 SSE 22 28 12 15 - - 0.0
07/11:00am 25.9 25.6 18.3 63 4.8 SSE 17 22 9 12 - - 0.0
07/10:30am 25.2 24.3 18.2 65 4.4 SSE 20 26 11 14 - - 0.0
07/10:00am 24.1 23.8 18.3 70 3.7 S 17 24 9 13 - - 0.0
07/09:30am 22.4 22.2 17.5 74 3.0 SSW 15 20 8 11 - - 0.0
07/09:00am 21.3 21.8 17.5 79 2.3 SW 11 15 6 8 - - 3.8
07/08:30am 20.8 21.7 17.6 82 2.0 SW 9 13 5 7 - - 3.8
07/08:00am 20.2 21.0 17.2 83 1.8 WSW 9 11 5 6 - - 3.8
07/07:30am 19.9 20.2 16.9 83 1.8 W 11 15 6 8 - - 3.8
07/07:00am 19.3 19.6 16.9 86 1.5 WSW 11 15 6 8 - - 3.8
07/06:30am 19.3 20.3 16.9 86 1.5 SW 7 9 4 5 - - 3.8
07/06:00am 19.1 19.8 17.1 88 1.2 WSW 9 11 5 6 - - 3.8
07/05:30am 19.1 20.3 17.4 90 1.0 SW 7 11 4 6 - - 3.8
07/05:00am 19.1 20.2 17.2 89 1.2 SW 7 9 4 5 - - 3.8
07/04:30am 19.3 20.5 17.4 89 1.2 WSW 7 11 4 6 - - 3.8
07/04:00am 19.2 20.5 17.5 90 1.0 WSW 7 11 4 6 - - 3.8
07/03:30am 19.5 20.4 17.6 89 1.2 SSW 9 11 5 6 - - 3.8
07/03:00am 19.8 20.9 17.9 89 1.2 S 9 13 5 7 - - 3.8
07/02:30am 19.9 20.6 17.9 88 1.2 SSW 11 13 6 7 - - 3.8
07/02:00am 20.0 21.0 17.8 87 1.4 SW 9 13 5 7 - - 3.8
07/01:30am 20.2 20.9 18.0 87 1.4 SSW 11 17 6 9 - - 3.8
07/01:00am 20.5 21.4 18.3 87 1.4 SSW 11 15 6 8 - - 3.8
07/12:30am 20.4 21.8 18.7 90 1.1 SW 9 15 5 8 - - 3.8
07/12:00am 20.4 21.0 18.7 90 1.1 SSW 13 19 7 10 - - 3.8
 
Date/Time
EDT
Temp
°C
App
Temp
°C
Dew
Point
Rel
Hum
%
Delta-T
°C
Wind Press
QNH
hPa
Press
MSL
hPa
Rain
since 9 am
mm
Dir
 
Spd
km/h
Gust
km/h
Spd
kts
Gust
kts
06/11:30pm 20.4 20.8 18.9 91 0.9 SSW 15 20 8 11 - - 3.8
06/11:00pm 20.2 21.0 19.0 93 0.8 SSW 13 20 7 11 - - 3.8
06/10:30pm 19.9 21.6 19.4 97 0.3 SSE 9 15 5 8 - - 3.8
06/10:00pm 20.0 20.3 19.5 97 0.3 SSE 17 26 9 14 - - 2.8
06/09:30pm 20.4 21.6 19.9 97 0.3 SSE 13 19 7 10 - - 2.0
06/09:00pm 20.4 20.7 19.7 96 0.4 SSE 17 24 9 13 - - 1.6
06/08:30pm 21.1 22.4 20.1 94 0.6 SSW 13 22 7 12 - - 1.2
06/08:00pm 21.4 22.8 20.4 94 0.6 S 13 22 7 12 - - 1.2
06/07:30pm 21.4 23.7 20.6 95 0.5 SSE 9 13 5 7 - - 1.2
06/07:00pm 21.3 22.3 20.3 94 0.6 SSE 15 20 8 11 - - 1.2
06/06:30pm 21.5 21.5 20.1 92 0.9 SE 20 28 11 15 - - 1.2

Other Formats:

Comma delimited format used in spreadsheet applications
http://www.bom.gov.au/fwo/IDN60801/IDN60801.95571.axf

JavaScript Object Notation format (JSON) in row-major order
http://www.bom.gov.au/fwo/IDN60801/IDN60801.95571.json